sensor_id;sensor_type;location;lat;lon;timestamp;P1;durP1;ratioP1;P2;durP2;ratioP2
43817;SDS011;29868;47.360;18.984;2023-04-12T00:01:05;3.72;;;1.98;;
43817;SDS011;29868;47.360;18.984;2023-04-12T00:03:30;4.50;;;2.03;;
43817;SDS011;29868;47.360;18.984;2023-04-12T00:05:58;3.50;;;2.15;;
43817;SDS011;29868;47.360;18.984;2023-04-12T00:08:27;3.25;;;2.35;;
43817;SDS011;29868;47.360;18.984;2023-04-12T00:11:00;5.32;;;2.58;;
43817;SDS011;29868;47.360;18.984;2023-04-12T00:13:27;3.90;;;2.10;;
43817;SDS011;29868;47.360;18.984;2023-04-12T00:15:53;3.95;;;2.13;;
43817;SDS011;29868;47.360;18.984;2023-04-12T00:18:19;5.20;;;2.22;;
43817;SDS011;29868;47.360;18.984;2023-04-12T00:20:48;4.30;;;2.40;;
43817;SDS011;29868;47.360;18.984;2023-04-12T00:23:15;5.18;;;2.35;;
43817;SDS011;29868;47.360;18.984;2023-04-12T00:25:41;3.17;;;2.05;;
43817;SDS011;29868;47.360;18.984;2023-04-12T00:28:06;4.22;;;2.35;;
43817;SDS011;29868;47.360;18.984;2023-04-12T00:30:32;3.90;;;2.45;;
43817;SDS011;29868;47.360;18.984;2023-04-12T00:32:57;3.75;;;2.30;;
43817;SDS011;29868;47.360;18.984;2023-04-12T00:35:23;5.15;;;2.40;;
43817;SDS011;29868;47.360;18.984;2023-04-12T00:37:49;3.60;;;2.33;;
43817;SDS011;29868;47.360;18.984;2023-04-12T00:40:15;5.82;;;2.92;;
43817;SDS011;29868;47.360;18.984;2023-04-12T00:42:40;4.90;;;2.70;;
43817;SDS011;29868;47.360;18.984;2023-04-12T00:45:06;5.18;;;2.67;;
43817;SDS011;29868;47.360;18.984;2023-04-12T00:47:33;4.25;;;2.40;;
43817;SDS011;29868;47.360;18.984;2023-04-12T00:50:00;4.95;;;2.90;;
43817;SDS011;29868;47.360;18.984;2023-04-12T00:52:26;4.32;;;2.47;;
43817;SDS011;29868;47.360;18.984;2023-04-12T00:54:59;6.30;;;3.40;;
43817;SDS011;29868;47.360;18.984;2023-04-12T00:57:26;3.95;;;2.75;;
43817;SDS011;29868;47.360;18.984;2023-04-12T00:59:52;5.38;;;2.88;;
43817;SDS011;29868;47.360;18.984;2023-04-12T01:02:18;5.78;;;3.03;;
43817;SDS011;29868;47.360;18.984;2023-04-12T01:04:44;5.55;;;2.70;;
43817;SDS011;29868;47.360;18.984;2023-04-12T01:12:47;6.43;;;3.33;;
43817;SDS011;29868;47.360;18.984;2023-04-12T01:15:22;5.45;;;2.92;;
43817;SDS011;29868;47.360;18.984;2023-04-12T01:17:58;5.70;;;3.00;;
43817;SDS011;29868;47.360;18.984;2023-04-12T01:20:34;4.45;;;2.83;;
43817;SDS011;29868;47.360;18.984;2023-04-12T01:23:13;6.30;;;3.15;;
43817;SDS011;29868;47.360;18.984;2023-04-12T01:25:56;5.32;;;2.75;;
43817;SDS011;29868;47.360;18.984;2023-04-12T01:28:25;5.63;;;2.90;;
43817;SDS011;29868;47.360;18.984;2023-04-12T01:30:53;4.95;;;3.10;;
43817;SDS011;29868;47.360;18.984;2023-04-12T01:33:19;6.78;;;3.20;;
43817;SDS011;29868;47.360;18.984;2023-04-12T01:35:45;4.88;;;2.95;;
43817;SDS011;29868;47.360;18.984;2023-04-12T01:38:13;5.90;;;2.97;;
43817;SDS011;29868;47.360;18.984;2023-04-12T01:40:39;5.57;;;2.90;;
43817;SDS011;29868;47.360;18.984;2023-04-12T01:43:10;7.72;;;3.30;;
43817;SDS011;29868;47.360;18.984;2023-04-12T01:45:37;7.57;;;3.03;;
43817;SDS011;29868;47.360;18.984;2023-04-12T01:48:04;5.95;;;3.13;;
43817;SDS011;29868;47.360;18.984;2023-04-12T01:55:46;5.22;;;3.13;;
43817;SDS011;29868;47.360;18.984;2023-04-12T01:58:16;5.25;;;2.75;;
43817;SDS011;29868;47.360;18.984;2023-04-12T02:00:45;6.03;;;2.88;;
43817;SDS011;29868;47.360;18.984;2023-04-12T02:03:12;7.03;;;3.35;;
43817;SDS011;29868;47.360;18.984;2023-04-12T02:05:38;5.10;;;3.15;;
43817;SDS011;29868;47.360;18.984;2023-04-12T02:08:03;5.97;;;3.03;;
43817;SDS011;29868;47.360;18.984;2023-04-12T02:10:30;4.05;;;2.58;;
43817;SDS011;29868;47.360;18.984;2023-04-12T02:12:59;4.80;;;2.78;;
43817;SDS011;29868;47.360;18.984;2023-04-12T02:15:26;7.22;;;2.80;;
43817;SDS011;29868;47.360;18.984;2023-04-12T02:17:52;5.32;;;2.60;;
43817;SDS011;29868;47.360;18.984;2023-04-12T02:20:21;6.82;;;3.45;;
43817;SDS011;29868;47.360;18.984;2023-04-12T02:22:48;5.50;;;3.40;;
43817;SDS011;29868;47.360;18.984;2023-04-12T02:25:14;5.57;;;2.97;;
43817;SDS011;29868;47.360;18.984;2023-04-12T02:27:42;4.75;;;3.20;;
43817;SDS011;29868;47.360;18.984;2023-04-12T02:30:08;5.53;;;3.10;;
43817;SDS011;29868;47.360;18.984;2023-04-12T02:32:33;5.55;;;2.92;;
43817;SDS011;29868;47.360;18.984;2023-04-12T02:35:08;5.63;;;3.42;;
43817;SDS011;29868;47.360;18.984;2023-04-12T02:37:34;6.50;;;3.10;;
43817;SDS011;29868;47.360;18.984;2023-04-12T02:40:00;5.40;;;2.92;;
43817;SDS011;29868;47.360;18.984;2023-04-12T02:42:26;6.05;;;3.28;;
43817;SDS011;29868;47.360;18.984;2023-04-12T02:44:52;5.88;;;3.58;;
43817;SDS011;29868;47.360;18.984;2023-04-12T02:47:17;7.40;;;3.45;;
43817;SDS011;29868;47.360;18.984;2023-04-12T02:49:42;6.93;;;3.75;;
43817;SDS011;29868;47.360;18.984;2023-04-12T02:52:08;5.82;;;3.15;;
43817;SDS011;29868;47.360;18.984;2023-04-12T02:54:33;7.10;;;4.10;;
43817;SDS011;29868;47.360;18.984;2023-04-12T02:56:59;7.18;;;3.30;;
43817;SDS011;29868;47.360;18.984;2023-04-12T02:59:24;6.22;;;3.67;;
43817;SDS011;29868;47.360;18.984;2023-04-12T03:01:50;5.18;;;3.28;;
43817;SDS011;29868;47.360;18.984;2023-04-12T03:04:15;6.22;;;3.83;;
43817;SDS011;29868;47.360;18.984;2023-04-12T03:06:41;6.85;;;3.55;;
43817;SDS011;29868;47.360;18.984;2023-04-12T03:11:41;7.15;;;3.58;;
43817;SDS011;29868;47.360;18.984;2023-04-12T03:14:07;7.63;;;3.55;;
43817;SDS011;29868;47.360;18.984;2023-04-12T03:16:32;7.13;;;4.30;;
43817;SDS011;29868;47.360;18.984;2023-04-12T03:18:59;6.97;;;4.10;;
43817;SDS011;29868;47.360;18.984;2023-04-12T03:21:25;7.15;;;4.15;;
43817;SDS011;29868;47.360;18.984;2023-04-12T03:23:52;8.18;;;4.25;;
43817;SDS011;29868;47.360;18.984;2023-04-12T03:26:17;7.75;;;4.22;;
43817;SDS011;29868;47.360;18.984;2023-04-12T03:28:44;9.75;;;5.18;;
43817;SDS011;29868;47.360;18.984;2023-04-12T03:31:11;8.88;;;4.85;;
43817;SDS011;29868;47.360;18.984;2023-04-12T03:33:36;7.15;;;4.75;;
43817;SDS011;29868;47.360;18.984;2023-04-12T03:36:02;8.68;;;4.97;;
43817;SDS011;29868;47.360;18.984;2023-04-12T03:38:29;8.35;;;5.25;;
43817;SDS011;29868;47.360;18.984;2023-04-12T03:40:54;9.77;;;5.63;;
43817;SDS011;29868;47.360;18.984;2023-04-12T03:43:19;10.50;;;6.28;;
43817;SDS011;29868;47.360;18.984;2023-04-12T03:45:46;12.70;;;7.78;;
43817;SDS011;29868;47.360;18.984;2023-04-12T03:48:11;13.30;;;7.32;;
43817;SDS011;29868;47.360;18.984;2023-04-12T03:50:37;11.57;;;5.53;;
43817;SDS011;29868;47.360;18.984;2023-04-12T03:53:11;8.95;;;5.07;;
43817;SDS011;29868;47.360;18.984;2023-04-12T03:55:36;7.97;;;4.63;;
43817;SDS011;29868;47.360;18.984;2023-04-12T03:58:02;8.52;;;4.70;;
43817;SDS011;29868;47.360;18.984;2023-04-12T04:00:29;8.90;;;5.00;;
43817;SDS011;29868;47.360;18.984;2023-04-12T04:02:56;7.35;;;4.68;;
43817;SDS011;29868;47.360;18.984;2023-04-12T04:05:26;9.75;;;4.63;;
43817;SDS011;29868;47.360;18.984;2023-04-12T04:07:53;8.07;;;5.00;;
43817;SDS011;29868;47.360;18.984;2023-04-12T04:10:18;8.18;;;4.38;;
43817;SDS011;29868;47.360;18.984;2023-04-12T04:12:43;7.35;;;4.68;;
43817;SDS011;29868;47.360;18.984;2023-04-12T04:15:09;9.02;;;4.88;;
43817;SDS011;29868;47.360;18.984;2023-04-12T04:17:35;8.48;;;5.32;;
43817;SDS011;29868;47.360;18.984;2023-04-12T04:20:01;9.27;;;4.45;;
43817;SDS011;29868;47.360;18.984;2023-04-12T04:22:26;10.18;;;5.07;;
43817;SDS011;29868;47.360;18.984;2023-04-12T04:24:53;8.95;;;4.78;;
43817;SDS011;29868;47.360;18.984;2023-04-12T04:27:19;9.55;;;5.13;;
43817;SDS011;29868;47.360;18.984;2023-04-12T04:29:46;7.68;;;4.88;;
43817;SDS011;29868;47.360;18.984;2023-04-12T04:32:11;9.45;;;4.93;;
43817;SDS011;29868;47.360;18.984;2023-04-12T04:34:37;6.72;;;4.30;;
43817;SDS011;29868;47.360;18.984;2023-04-12T04:37:02;8.60;;;4.20;;
43817;SDS011;29868;47.360;18.984;2023-04-12T04:39:27;6.63;;;4.40;;
43817;SDS011;29868;47.360;18.984;2023-04-12T04:41:53;8.25;;;4.60;;
43817;SDS011;29868;47.360;18.984;2023-04-12T04:44:19;7.65;;;4.55;;
43817;SDS011;29868;47.360;18.984;2023-04-12T04:46:45;8.77;;;4.90;;
43817;SDS011;29868;47.360;18.984;2023-04-12T04:49:12;6.88;;;3.88;;
43817;SDS011;29868;47.360;18.984;2023-04-12T04:51:38;21.77;;;11.00;;
43817;SDS011;29868;47.360;18.984;2023-04-12T04:54:03;20.13;;;10.07;;
43817;SDS011;29868;47.360;18.984;2023-04-12T04:56:28;12.80;;;7.18;;
43817;SDS011;29868;47.360;18.984;2023-04-12T04:58:54;12.40;;;7.05;;
43817;SDS011;29868;47.360;18.984;2023-04-12T05:01:19;7.95;;;5.28;;
43817;SDS011;29868;47.360;18.984;2023-04-12T05:03:45;6.35;;;4.38;;
43817;SDS011;29868;47.360;18.984;2023-04-12T05:06:10;12.27;;;4.57;;
43817;SDS011;29868;47.360;18.984;2023-04-12T05:08:36;6.47;;;3.55;;
43817;SDS011;29868;47.360;18.984;2023-04-12T05:11:01;5.47;;;3.47;;
43817;SDS011;29868;47.360;18.984;2023-04-12T05:13:27;5.65;;;3.25;;
43817;SDS011;29868;47.360;18.984;2023-04-12T05:15:52;7.22;;;4.03;;
43817;SDS011;29868;47.360;18.984;2023-04-12T05:18:18;5.93;;;3.10;;
43817;SDS011;29868;47.360;18.984;2023-04-12T05:20:43;4.93;;;3.17;;
43817;SDS011;29868;47.360;18.984;2023-04-12T05:23:09;5.63;;;3.05;;
43817;SDS011;29868;47.360;18.984;2023-04-12T05:25:35;4.85;;;3.00;;
43817;SDS011;29868;47.360;18.984;2023-04-12T05:28:01;4.90;;;3.35;;
43817;SDS011;29868;47.360;18.984;2023-04-12T05:30:26;5.50;;;3.22;;
43817;SDS011;29868;47.360;18.984;2023-04-12T05:32:52;5.13;;;3.20;;
43817;SDS011;29868;47.360;18.984;2023-04-12T05:35:17;6.40;;;3.33;;
43817;SDS011;29868;47.360;18.984;2023-04-12T05:37:42;7.78;;;4.63;;
43817;SDS011;29868;47.360;18.984;2023-04-12T05:40:08;5.25;;;3.20;;
43817;SDS011;29868;47.360;18.984;2023-04-12T05:42:37;6.10;;;3.53;;
43817;SDS011;29868;47.360;18.984;2023-04-12T05:45:02;5.47;;;3.20;;
43817;SDS011;29868;47.360;18.984;2023-04-12T05:47:28;4.97;;;3.30;;
43817;SDS011;29868;47.360;18.984;2023-04-12T05:49:54;5.28;;;3.42;;
43817;SDS011;29868;47.360;18.984;2023-04-12T05:52:20;5.07;;;3.40;;
43817;SDS011;29868;47.360;18.984;2023-04-12T05:54:45;5.90;;;3.65;;
43817;SDS011;29868;47.360;18.984;2023-04-12T05:57:11;5.72;;;3.42;;
43817;SDS011;29868;47.360;18.984;2023-04-12T05:59:36;5.40;;;3.28;;
43817;SDS011;29868;47.360;18.984;2023-04-12T06:02:01;5.97;;;3.33;;
43817;SDS011;29868;47.360;18.984;2023-04-12T06:04:27;5.47;;;3.70;;
43817;SDS011;29868;47.360;18.984;2023-04-12T06:06:52;6.53;;;3.40;;
43817;SDS011;29868;47.360;18.984;2023-04-12T06:09:20;7.03;;;3.10;;
43817;SDS011;29868;47.360;18.984;2023-04-12T06:11:45;5.30;;;3.20;;
43817;SDS011;29868;47.360;18.984;2023-04-12T06:14:11;4.50;;;3.08;;
43817;SDS011;29868;47.360;18.984;2023-04-12T06:16:36;4.68;;;2.90;;
43817;SDS011;29868;47.360;18.984;2023-04-12T06:19:01;4.55;;;3.10;;
43817;SDS011;29868;47.360;18.984;2023-04-12T06:21:27;4.35;;;3.08;;
43817;SDS011;29868;47.360;18.984;2023-04-12T06:23:52;5.28;;;3.10;;
43817;SDS011;29868;47.360;18.984;2023-04-12T06:26:18;4.50;;;2.67;;
43817;SDS011;29868;47.360;18.984;2023-04-12T06:28:43;6.78;;;2.72;;
43817;SDS011;29868;47.360;18.984;2023-04-12T06:31:08;4.80;;;2.88;;
43817;SDS011;29868;47.360;18.984;2023-04-12T06:33:34;4.50;;;2.90;;
43817;SDS011;29868;47.360;18.984;2023-04-12T06:36:00;4.85;;;2.72;;
43817;SDS011;29868;47.360;18.984;2023-04-12T06:38:26;4.00;;;2.90;;
43817;SDS011;29868;47.360;18.984;2023-04-12T06:40:51;4.25;;;2.55;;
43817;SDS011;29868;47.360;18.984;2023-04-12T06:43:17;5.43;;;3.13;;
43817;SDS011;29868;47.360;18.984;2023-04-12T06:45:46;5.63;;;2.80;;
43817;SDS011;29868;47.360;18.984;2023-04-12T06:48:14;4.63;;;2.92;;
43817;SDS011;29868;47.360;18.984;2023-04-12T06:50:39;4.45;;;2.85;;
43817;SDS011;29868;47.360;18.984;2023-04-12T06:53:05;5.00;;;3.00;;
43817;SDS011;29868;47.360;18.984;2023-04-12T06:55:30;6.72;;;3.17;;
43817;SDS011;29868;47.360;18.984;2023-04-12T06:57:55;6.93;;;3.20;;
43817;SDS011;29868;47.360;18.984;2023-04-12T07:00:21;5.13;;;3.55;;
43817;SDS011;29868;47.360;18.984;2023-04-12T07:02:47;5.22;;;3.20;;
43817;SDS011;29868;47.360;18.984;2023-04-12T07:05:12;5.07;;;3.47;;
43817;SDS011;29868;47.360;18.984;2023-04-12T07:07:38;5.88;;;3.13;;
43817;SDS011;29868;47.360;18.984;2023-04-12T07:10:03;6.72;;;3.70;;
43817;SDS011;29868;47.360;18.984;2023-04-12T07:12:30;5.30;;;3.60;;
43817;SDS011;29868;47.360;18.984;2023-04-12T07:14:55;6.28;;;3.78;;
43817;SDS011;29868;47.360;18.984;2023-04-12T07:17:21;5.72;;;3.42;;
43817;SDS011;29868;47.360;18.984;2023-04-12T07:19:47;5.88;;;3.60;;
43817;SDS011;29868;47.360;18.984;2023-04-12T07:22:14;6.60;;;3.75;;
43817;SDS011;29868;47.360;18.984;2023-04-12T07:24:39;6.38;;;3.17;;
43817;SDS011;29868;47.360;18.984;2023-04-12T07:27:05;5.30;;;3.33;;
43817;SDS011;29868;47.360;18.984;2023-04-12T07:29:30;6.00;;;3.40;;
43817;SDS011;29868;47.360;18.984;2023-04-12T07:31:57;5.80;;;3.35;;
43817;SDS011;29868;47.360;18.984;2023-04-12T07:34:23;7.75;;;3.67;;
43817;SDS011;29868;47.360;18.984;2023-04-12T07:36:48;5.85;;;3.58;;
43817;SDS011;29868;47.360;18.984;2023-04-12T07:39:14;6.00;;;3.35;;
43817;SDS011;29868;47.360;18.984;2023-04-12T07:41:42;5.65;;;3.30;;
43817;SDS011;29868;47.360;18.984;2023-04-12T07:44:10;5.47;;;3.33;;
43817;SDS011;29868;47.360;18.984;2023-04-12T07:46:36;4.72;;;2.97;;
43817;SDS011;29868;47.360;18.984;2023-04-12T07:49:02;4.53;;;3.13;;
43817;SDS011;29868;47.360;18.984;2023-04-12T07:51:27;4.32;;;2.88;;
43817;SDS011;29868;47.360;18.984;2023-04-12T07:53:53;5.30;;;3.45;;
43817;SDS011;29868;47.360;18.984;2023-04-12T07:56:18;4.68;;;2.83;;
43817;SDS011;29868;47.360;18.984;2023-04-12T07:58:44;4.65;;;2.85;;
43817;SDS011;29868;47.360;18.984;2023-04-12T08:01:10;5.15;;;3.03;;
43817;SDS011;29868;47.360;18.984;2023-04-12T08:03:37;4.32;;;2.92;;
43817;SDS011;29868;47.360;18.984;2023-04-12T08:06:02;4.93;;;3.10;;
43817;SDS011;29868;47.360;18.984;2023-04-12T08:08:28;5.28;;;3.13;;
43817;SDS011;29868;47.360;18.984;2023-04-12T08:10:53;5.55;;;2.67;;
43817;SDS011;29868;47.360;18.984;2023-04-12T08:13:19;5.03;;;2.80;;
43817;SDS011;29868;47.360;18.984;2023-04-12T08:15:45;3.90;;;2.22;;
43817;SDS011;29868;47.360;18.984;2023-04-12T08:18:14;4.53;;;2.28;;
43817;SDS011;29868;47.360;18.984;2023-04-12T08:20:39;3.58;;;2.25;;
43817;SDS011;29868;47.360;18.984;2023-04-12T08:23:06;4.40;;;2.40;;
43817;SDS011;29868;47.360;18.984;2023-04-12T08:25:32;4.50;;;2.00;;
43817;SDS011;29868;47.360;18.984;2023-04-12T08:27:58;2.67;;;1.95;;
43817;SDS011;29868;47.360;18.984;2023-04-12T08:30:23;4.60;;;2.45;;
43817;SDS011;29868;47.360;18.984;2023-04-12T08:32:51;3.00;;;1.95;;
43817;SDS011;29868;47.360;18.984;2023-04-12T08:35:17;4.72;;;2.42;;
43817;SDS011;29868;47.360;18.984;2023-04-12T08:37:43;3.63;;;1.90;;
43817;SDS011;29868;47.360;18.984;2023-04-12T08:40:08;4.57;;;2.13;;
43817;SDS011;29868;47.360;18.984;2023-04-12T08:42:34;4.50;;;2.17;;
43817;SDS011;29868;47.360;18.984;2023-04-12T08:45:05;3.83;;;1.90;;
43817;SDS011;29868;47.360;18.984;2023-04-12T08:47:43;5.32;;;2.03;;
43817;SDS011;29868;47.360;18.984;2023-04-12T08:50:09;4.22;;;1.98;;
43817;SDS011;29868;47.360;18.984;2023-04-12T08:52:37;2.38;;;1.40;;
43817;SDS011;29868;47.360;18.984;2023-04-12T08:55:07;2.63;;;1.60;;
43817;SDS011;29868;47.360;18.984;2023-04-12T08:57:33;3.60;;;1.83;;
43817;SDS011;29868;47.360;18.984;2023-04-12T09:00:00;3.78;;;1.65;;
43817;SDS011;29868;47.360;18.984;2023-04-12T09:02:27;6.28;;;1.92;;
43817;SDS011;29868;47.360;18.984;2023-04-12T09:04:53;5.10;;;2.00;;
43817;SDS011;29868;47.360;18.984;2023-04-12T09:07:19;2.72;;;1.85;;
43817;SDS011;29868;47.360;18.984;2023-04-12T09:09:47;3.95;;;1.83;;
43817;SDS011;29868;47.360;18.984;2023-04-12T09:12:14;3.85;;;2.00;;
43817;SDS011;29868;47.360;18.984;2023-04-12T09:14:40;3.67;;;1.90;;
43817;SDS011;29868;47.360;18.984;2023-04-12T09:17:22;3.28;;;1.95;;
43817;SDS011;29868;47.360;18.984;2023-04-12T09:19:51;3.10;;;1.80;;
43817;SDS011;29868;47.360;18.984;2023-04-12T09:22:29;4.07;;;1.58;;
43817;SDS011;29868;47.360;18.984;2023-04-12T09:24:57;3.78;;;1.60;;
43817;SDS011;29868;47.360;18.984;2023-04-12T09:27:22;4.25;;;1.80;;
43817;SDS011;29868;47.360;18.984;2023-04-12T09:29:49;4.07;;;1.90;;
43817;SDS011;29868;47.360;18.984;2023-04-12T09:32:22;3.17;;;1.63;;
43817;SDS011;29868;47.360;18.984;2023-04-12T09:34:55;3.95;;;1.90;;
43817;SDS011;29868;47.360;18.984;2023-04-12T09:37:21;3.20;;;1.45;;
43817;SDS011;29868;47.360;18.984;2023-04-12T09:39:52;3.53;;;1.83;;
43817;SDS011;29868;47.360;18.984;2023-04-12T09:42:27;3.97;;;1.70;;
43817;SDS011;29868;47.360;18.984;2023-04-12T09:44:53;2.50;;;1.67;;
43817;SDS011;29868;47.360;18.984;2023-04-12T09:47:19;3.15;;;1.55;;
43817;SDS011;29868;47.360;18.984;2023-04-12T09:49:45;2.45;;;1.27;;
43817;SDS011;29868;47.360;18.984;2023-04-12T09:52:11;4.13;;;1.63;;
43817;SDS011;29868;47.360;18.984;2023-04-12T09:54:38;4.75;;;1.77;;
43817;SDS011;29868;47.360;18.984;2023-04-12T09:57:09;4.07;;;2.03;;
43817;SDS011;29868;47.360;18.984;2023-04-12T09:59:37;4.90;;;1.40;;
43817;SDS011;29868;47.360;18.984;2023-04-12T10:02:12;3.58;;;1.85;;
43817;SDS011;29868;47.360;18.984;2023-04-12T10:04:40;4.18;;;1.85;;
43817;SDS011;29868;47.360;18.984;2023-04-12T10:07:06;2.60;;;1.50;;
43817;SDS011;29868;47.360;18.984;2023-04-12T10:09:32;3.08;;;1.40;;
43817;SDS011;29868;47.360;18.984;2023-04-12T10:11:58;3.95;;;1.50;;
43817;SDS011;29868;47.360;18.984;2023-04-12T10:14:28;3.47;;;1.70;;
43817;SDS011;29868;47.360;18.984;2023-04-12T10:16:58;3.30;;;1.50;;
43817;SDS011;29868;47.360;18.984;2023-04-12T10:19:25;2.67;;;1.45;;
43817;SDS011;29868;47.360;18.984;2023-04-12T10:21:53;2.42;;;1.40;;
43817;SDS011;29868;47.360;18.984;2023-04-12T10:24:25;4.47;;;1.40;;
43817;SDS011;29868;47.360;18.984;2023-04-12T10:26:52;3.22;;;1.55;;
43817;SDS011;29868;47.360;18.984;2023-04-12T10:31:51;2.95;;;1.30;;
43817;SDS011;29868;47.360;18.984;2023-04-12T10:34:22;3.35;;;1.50;;
43817;SDS011;29868;47.360;18.984;2023-04-12T10:36:57;3.75;;;1.38;;
43817;SDS011;29868;47.360;18.984;2023-04-12T10:39:36;2.47;;;1.13;;
43817;SDS011;29868;47.360;18.984;2023-04-12T10:47:05;3.15;;;1.50;;
43817;SDS011;29868;47.360;18.984;2023-04-12T10:49:31;4.00;;;1.60;;
43817;SDS011;29868;47.360;18.984;2023-04-12T10:54:33;4.80;;;1.52;;
43817;SDS011;29868;47.360;18.984;2023-04-12T10:56:59;3.25;;;1.40;;
43817;SDS011;29868;47.360;18.984;2023-04-12T10:59:26;2.78;;;1.58;;
43817;SDS011;29868;47.360;18.984;2023-04-12T11:02:14;2.88;;;1.48;;
43817;SDS011;29868;47.360;18.984;2023-04-12T11:05:02;4.35;;;1.48;;
43817;SDS011;29868;47.360;18.984;2023-04-12T11:07:40;3.92;;;1.65;;
43817;SDS011;29868;47.360;18.984;2023-04-12T11:10:13;2.67;;;1.30;;
43817;SDS011;29868;47.360;18.984;2023-04-12T11:12:41;3.03;;;1.60;;
43817;SDS011;29868;47.360;18.984;2023-04-12T11:15:12;3.40;;;1.52;;
43817;SDS011;29868;47.360;18.984;2023-04-12T11:17:38;6.15;;;1.85;;
43817;SDS011;29868;47.360;18.984;2023-04-12T11:20:03;2.55;;;1.73;;
43817;SDS011;29868;47.360;18.984;2023-04-12T11:22:34;2.75;;;1.40;;
43817;SDS011;29868;47.360;18.984;2023-04-12T11:25:02;3.40;;;1.30;;
43817;SDS011;29868;47.360;18.984;2023-04-12T11:27:28;3.03;;;1.40;;
43817;SDS011;29868;47.360;18.984;2023-04-12T11:29:55;5.10;;;1.50;;
43817;SDS011;29868;47.360;18.984;2023-04-12T11:32:22;3.70;;;1.50;;
43817;SDS011;29868;47.360;18.984;2023-04-12T11:34:52;4.03;;;1.70;;
43817;SDS011;29868;47.360;18.984;2023-04-12T11:37:20;3.75;;;1.67;;
43817;SDS011;29868;47.360;18.984;2023-04-12T11:39:46;6.28;;;1.67;;
43817;SDS011;29868;47.360;18.984;2023-04-12T11:42:20;2.72;;;1.48;;
43817;SDS011;29868;47.360;18.984;2023-04-12T11:44:47;2.92;;;1.38;;
43817;SDS011;29868;47.360;18.984;2023-04-12T11:47:20;3.08;;;1.40;;
43817;SDS011;29868;47.360;18.984;2023-04-12T11:49:56;2.75;;;1.45;;
43817;SDS011;29868;47.360;18.984;2023-04-12T11:52:32;2.97;;;1.40;;
43817;SDS011;29868;47.360;18.984;2023-04-12T11:57:24;3.80;;;1.50;;
43817;SDS011;29868;47.360;18.984;2023-04-12T11:59:50;3.33;;;1.45;;
43817;SDS011;29868;47.360;18.984;2023-04-12T12:02:16;3.13;;;1.75;;
43817;SDS011;29868;47.360;18.984;2023-04-12T12:04:46;4.72;;;1.67;;
43817;SDS011;29868;47.360;18.984;2023-04-12T12:07:14;3.47;;;1.35;;
43817;SDS011;29868;47.360;18.984;2023-04-12T12:09:41;3.10;;;1.40;;
43817;SDS011;29868;47.360;18.984;2023-04-12T12:12:10;4.22;;;1.90;;
43817;SDS011;29868;47.360;18.984;2023-04-12T12:14:36;5.43;;;1.80;;
43817;SDS011;29868;47.360;18.984;2023-04-12T12:17:08;3.03;;;1.63;;
43817;SDS011;29868;47.360;18.984;2023-04-12T12:19:36;3.70;;;1.50;;
43817;SDS011;29868;47.360;18.984;2023-04-12T12:24:37;3.50;;;1.60;;
43817;SDS011;29868;47.360;18.984;2023-04-12T12:27:03;2.78;;;1.42;;
43817;SDS011;29868;47.360;18.984;2023-04-12T12:29:35;1.88;;;1.38;;
43817;SDS011;29868;47.360;18.984;2023-04-12T12:32:02;3.42;;;1.40;;
43817;SDS011;29868;47.360;18.984;2023-04-12T12:34:35;3.05;;;1.55;;
43817;SDS011;29868;47.360;18.984;2023-04-12T12:37:01;3.42;;;1.60;;
43817;SDS011;29868;47.360;18.984;2023-04-12T12:39:26;4.50;;;1.67;;
43817;SDS011;29868;47.360;18.984;2023-04-12T12:41:55;3.25;;;1.40;;
43817;SDS011;29868;47.360;18.984;2023-04-12T12:44:21;3.10;;;1.25;;
43817;SDS011;29868;47.360;18.984;2023-04-12T12:46:47;2.35;;;1.48;;
43817;SDS011;29868;47.360;18.984;2023-04-12T12:49:13;6.28;;;2.28;;
43817;SDS011;29868;47.360;18.984;2023-04-12T12:51:40;3.95;;;1.63;;
43817;SDS011;29868;47.360;18.984;2023-04-12T12:54:06;3.55;;;1.80;;
43817;SDS011;29868;47.360;18.984;2023-04-12T12:56:31;3.40;;;1.80;;
43817;SDS011;29868;47.360;18.984;2023-04-12T12:58:57;4.68;;;1.92;;
43817;SDS011;29868;47.360;18.984;2023-04-12T13:01:22;3.63;;;1.63;;
43817;SDS011;29868;47.360;18.984;2023-04-12T13:03:48;3.28;;;1.65;;
43817;SDS011;29868;47.360;18.984;2023-04-12T13:06:13;4.47;;;1.67;;
43817;SDS011;29868;47.360;18.984;2023-04-12T13:08:39;3.50;;;1.60;;
43817;SDS011;29868;47.360;18.984;2023-04-12T13:11:05;3.95;;;1.67;;
43817;SDS011;29868;47.360;18.984;2023-04-12T13:13:30;4.85;;;1.80;;
43817;SDS011;29868;47.360;18.984;2023-04-12T13:15:56;4.30;;;1.67;;
43817;SDS011;29868;47.360;18.984;2023-04-12T13:18:21;4.78;;;2.22;;
43817;SDS011;29868;47.360;18.984;2023-04-12T13:20:47;3.22;;;1.80;;
43817;SDS011;29868;47.360;18.984;2023-04-12T13:23:12;3.08;;;1.70;;
43817;SDS011;29868;47.360;18.984;2023-04-12T13:25:38;3.17;;;1.33;;
43817;SDS011;29868;47.360;18.984;2023-04-12T13:28:03;4.28;;;1.63;;
43817;SDS011;29868;47.360;18.984;2023-04-12T13:30:29;3.85;;;1.42;;
43817;SDS011;29868;47.360;18.984;2023-04-12T13:32:55;3.47;;;1.30;;
43817;SDS011;29868;47.360;18.984;2023-04-12T13:35:20;3.42;;;1.70;;
43817;SDS011;29868;47.360;18.984;2023-04-12T13:37:45;2.92;;;1.35;;
43817;SDS011;29868;47.360;18.984;2023-04-12T13:40:11;3.40;;;1.70;;
43817;SDS011;29868;47.360;18.984;2023-04-12T13:42:37;3.22;;;1.40;;
43817;SDS011;29868;47.360;18.984;2023-04-12T13:45:02;1.60;;;1.30;;
43817;SDS011;29868;47.360;18.984;2023-04-12T13:47:29;4.32;;;1.55;;
43817;SDS011;29868;47.360;18.984;2023-04-12T13:49:55;4.55;;;1.70;;
43817;SDS011;29868;47.360;18.984;2023-04-12T13:52:21;5.15;;;2.15;;
43817;SDS011;29868;47.360;18.984;2023-04-12T13:54:47;4.00;;;2.38;;
43817;SDS011;29868;47.360;18.984;2023-04-12T13:57:12;2.75;;;1.50;;
43817;SDS011;29868;47.360;18.984;2023-04-12T13:59:38;3.97;;;1.80;;
43817;SDS011;29868;47.360;18.984;2023-04-12T14:02:04;3.90;;;1.73;;
43817;SDS011;29868;47.360;18.984;2023-04-12T14:04:29;3.20;;;1.35;;
43817;SDS011;29868;47.360;18.984;2023-04-12T14:06:55;2.65;;;1.30;;
43817;SDS011;29868;47.360;18.984;2023-04-12T14:09:25;3.42;;;1.42;;
43817;SDS011;29868;47.360;18.984;2023-04-12T14:11:52;3.60;;;1.55;;
43817;SDS011;29868;47.360;18.984;2023-04-12T14:14:22;2.30;;;1.35;;
43817;SDS011;29868;47.360;18.984;2023-04-12T14:16:49;3.67;;;1.50;;
43817;SDS011;29868;47.360;18.984;2023-04-12T14:19:16;3.15;;;1.70;;
43817;SDS011;29868;47.360;18.984;2023-04-12T14:21:41;4.35;;;1.80;;
43817;SDS011;29868;47.360;18.984;2023-04-12T14:24:07;4.15;;;1.90;;
43817;SDS011;29868;47.360;18.984;2023-04-12T14:26:32;3.30;;;2.00;;
43817;SDS011;29868;47.360;18.984;2023-04-12T14:28:58;4.32;;;1.88;;
43817;SDS011;29868;47.360;18.984;2023-04-12T14:31:23;4.10;;;1.95;;
43817;SDS011;29868;47.360;18.984;2023-04-12T14:33:49;4.03;;;1.58;;
43817;SDS011;29868;47.360;18.984;2023-04-12T14:36:15;4.28;;;1.88;;
43817;SDS011;29868;47.360;18.984;2023-04-12T14:38:40;3.90;;;1.73;;
43817;SDS011;29868;47.360;18.984;2023-04-12T14:41:06;4.93;;;1.70;;
43817;SDS011;29868;47.360;18.984;2023-04-12T14:43:33;3.40;;;2.13;;
43817;SDS011;29868;47.360;18.984;2023-04-12T14:45:58;4.30;;;1.70;;
43817;SDS011;29868;47.360;18.984;2023-04-12T14:48:24;7.10;;;2.90;;
43817;SDS011;29868;47.360;18.984;2023-04-12T14:50:49;9.73;;;5.53;;
43817;SDS011;29868;47.360;18.984;2023-04-12T14:53:14;4.85;;;2.20;;
43817;SDS011;29868;47.360;18.984;2023-04-12T14:55:42;4.13;;;1.90;;
43817;SDS011;29868;47.360;18.984;2023-04-12T14:58:08;3.40;;;1.80;;
43817;SDS011;29868;47.360;18.984;2023-04-12T15:00:34;4.35;;;2.25;;